XBJCS MPTO-MHRO
Flight info
| Callsign | XBJCS |
|---|---|
| Flight time | N/A |
| Altitude | 18000 |
| Route | EGETA3A EGETA V11 TBG/N0486F430 UM419 AROVI/N0480F450 UM419 ANSON/N0486F430 UM206 BTO |
| Aircraft | C750/M-SBDE3FGHRWXY/S |
Departure
| Time | 2026-04-29 15:45 |
|---|---|
| Airport | Tocumen International Airport (MPTO) |
Arrival
| Time | N/A |
|---|---|
| Airport | Juan Manuel Gálvez International Airport (MHRO) |
| Time | Latitude | Longitude | Altitude | Speed | Heading |
|---|---|---|---|---|---|
| 2026-04-29 15:32 | 9.07798 | -79.38124 | 28 ft | 0 kts | 211° |
| 2026-04-29 15:40 | 9.07798 | -79.38129 | 28 ft | 1 kts | 263° |
| 2026-04-29 15:40 | 9.07806 | -79.38135 | 28 ft | 2 kts | 331° |
| 2026-04-29 15:40 | 9.07833 | -79.38145 | 28 ft | 6 kts | 339° |
| 2026-04-29 15:41 | 9.07869 | -79.38179 | 30 ft | 8 kts | 283° |
| 2026-04-29 15:41 | 9.07834 | -79.38223 | 31 ft | 11 kts | 212° |
| 2026-04-29 15:41 | 9.07758 | -79.38270 | 31 ft | 15 kts | 211° |
| 2026-04-29 15:41 | 9.07654 | -79.38332 | 31 ft | 20 kts | 210° |
| 2026-04-29 15:42 | 9.07535 | -79.38403 | 31 ft | 21 kts | 210° |
| 2026-04-29 15:42 | 9.07399 | -79.38487 | 31 ft | 21 kts | 213° |
| 2026-04-29 15:42 | 9.07335 | -79.38542 | 32 ft | 0 kts | 273° |
| 2026-04-29 15:42 | 9.07336 | -79.38547 | 32 ft | 2 kts | 284° |
| 2026-04-29 15:43 | 9.07345 | -79.38565 | 34 ft | 4 kts | 298° |
| 2026-04-29 15:43 | 9.07358 | -79.38590 | 38 ft | 4 kts | 297° |
| 2026-04-29 15:43 | 9.07367 | -79.38607 | 40 ft | 2 kts | 297° |
| 2026-04-29 15:43 | 9.07370 | -79.38613 | 41 ft | 1 kts | 297° |
| 2026-04-29 15:44 | 9.07377 | -79.38627 | 43 ft | 4 kts | 297° |
| 2026-04-29 15:44 | 9.07406 | -79.38676 | 44 ft | 7 kts | 326° |
| 2026-04-29 15:44 | 9.07450 | -79.38640 | 45 ft | 14 kts | 47° |
| 2026-04-29 15:44 | 9.07585 | -79.38554 | 45 ft | 46 kts | 29° |
| 2026-04-29 15:45 | 9.08137 | -79.38216 | 43 ft | 132 kts | 30° |
| 2026-04-29 15:45 | 9.09006 | -79.37704 | 393 ft | 142 kts | 29° |
| 2026-04-29 15:45 | 9.09857 | -79.37181 | 1003 ft | 151 kts | 33° |
| 2026-04-29 15:45 | 9.10757 | -79.36420 | 1289 ft | 187 kts | 44° |
| 2026-04-29 15:46 | 9.11301 | -79.35122 | 1640 ft | 213 kts | 81° |
| 2026-04-29 15:46 | 9.11056 | -79.33634 | 2146 ft | 223 kts | 115° |
| 2026-04-29 15:46 | 9.09986 | -79.32528 | 2672 ft | 229 kts | 150° |